createdAt,value
2023-02-06T00:01:28.618Z,6.03
2023-02-06T00:03:56.612Z,6.00
2023-02-06T00:06:24.576Z,6.28
2023-02-06T00:08:52.538Z,6.57
2023-02-06T00:11:21.788Z,5.43
2023-02-06T00:13:50.371Z,6.63
2023-02-06T00:16:19.542Z,5.30
2023-02-06T00:18:49.462Z,5.68
2023-02-06T00:21:20.204Z,6.60
2023-02-06T00:23:48.232Z,6.60
2023-02-06T00:26:16.303Z,5.90
2023-02-06T00:28:44.372Z,5.35
2023-02-06T00:31:12.728Z,5.53
2023-02-06T00:33:41.242Z,5.88
2023-02-06T00:36:11.363Z,5.43
2023-02-06T00:38:39.740Z,6.35
2023-02-06T00:41:07.738Z,6.05
2023-02-06T00:43:35.730Z,6.50
2023-02-06T00:46:03.726Z,5.03
2023-02-06T00:48:31.724Z,6.00
2023-02-06T00:50:59.689Z,5.80
2023-02-06T00:53:29.013Z,5.60
2023-02-06T00:55:57.132Z,5.90
2023-02-06T00:58:25.076Z,5.93
2023-02-06T01:00:54.288Z,5.55
2023-02-06T01:03:22.711Z,5.80
2023-02-06T01:05:50.709Z,5.30
2023-02-06T01:08:18.709Z,5.40
2023-02-06T01:10:48.088Z,4.90
2023-02-06T01:13:16.011Z,4.80
2023-02-06T01:15:44.117Z,5.53
2023-02-06T01:18:12.489Z,6.82
2023-02-06T01:20:41.866Z,5.90
2023-02-06T01:23:10.593Z,5.60
2023-02-06T01:25:39.201Z,5.90
2023-02-06T01:28:08.550Z,5.32
2023-02-06T01:30:36.530Z,5.57
2023-02-06T01:33:04.617Z,5.80
2023-02-06T01:35:32.751Z,6.07
2023-02-06T01:38:00.819Z,5.00
2023-02-06T01:40:28.826Z,4.40
2023-02-06T01:42:56.867Z,4.85
2023-02-06T01:45:45.124Z,4.88
2023-02-06T01:48:18.413Z,4.90
2023-02-06T01:50:51.149Z,5.30
2023-02-06T01:53:21.224Z,5.53
2023-02-06T01:55:52.296Z,4.80
2023-02-06T01:58:25.738Z,5.93
2023-02-06T02:00:56.026Z,3.78
2023-02-06T02:03:24.169Z,4.85
2023-02-06T02:05:54.768Z,4.67
2023-02-06T02:08:28.707Z,5.60
2023-02-06T02:10:56.771Z,5.18
2023-02-06T02:13:24.777Z,5.03
2023-02-06T02:16:00.944Z,5.00
2023-02-06T02:18:47.603Z,4.90
2023-02-06T02:21:57.320Z,4.30
2023-02-06T02:24:43.732Z,5.28
2023-02-06T02:27:40.756Z,6.00
2023-02-06T02:30:42.079Z,4.72
2023-02-06T02:33:38.414Z,4.68
2023-02-06T02:36:14.864Z,5.38
2023-02-06T02:38:59.770Z,5.00
2023-02-06T02:41:35.072Z,4.83
2023-02-06T02:44:07.610Z,5.45
2023-02-06T02:46:38.587Z,5.63
2023-02-06T02:49:11.415Z,5.32
2023-02-06T02:51:42.963Z,5.07
2023-02-06T02:54:11.012Z,4.35
2023-02-06T02:56:39.398Z,5.30
2023-02-06T02:59:12.425Z,5.25
2023-02-06T03:01:45.143Z,5.70
2023-02-06T03:04:19.126Z,5.25
2023-02-06T03:07:04.575Z,5.00
2023-02-06T03:09:48.990Z,4.88
2023-02-06T03:12:22.956Z,4.10
2023-02-06T03:14:56.680Z,4.68
2023-02-06T03:17:31.428Z,4.95
2023-02-06T03:20:00.319Z,5.30
2023-02-06T03:22:30.536Z,5.07
2023-02-06T03:25:00.200Z,4.13
2023-02-06T03:27:29.425Z,4.63
2023-02-06T03:29:59.681Z,4.78
2023-02-06T03:32:32.343Z,4.43
2023-02-06T03:35:04.519Z,4.50
2023-02-06T03:37:36.385Z,4.78
2023-02-06T03:40:05.991Z,4.97
2023-02-06T03:42:38.532Z,4.60
2023-02-06T03:45:10.896Z,4.35
2023-02-06T03:47:39.888Z,4.80
2023-02-06T03:50:10.822Z,4.80
2023-02-06T03:52:44.151Z,4.70
2023-02-06T03:55:15.723Z,5.00
2023-02-06T03:57:46.822Z,4.25
2023-02-06T04:00:15.752Z,4.43
2023-02-06T04:02:46.362Z,4.15
2023-02-06T04:05:15.158Z,3.95
2023-02-06T04:07:44.482Z,4.18
2023-02-06T04:10:13.050Z,4.70
2023-02-06T04:12:41.018Z,4.68
2023-02-06T04:15:09.614Z,4.15
2023-02-06T04:17:53.527Z,4.20
2023-02-06T04:20:25.661Z,4.30
2023-02-06T04:22:54.917Z,4.27
2023-02-06T04:25:22.853Z,4.53
2023-02-06T04:27:51.214Z,5.20
2023-02-06T04:30:19.398Z,4.85
2023-02-06T04:32:47.390Z,4.65
2023-02-06T04:35:15.397Z,4.07
2023-02-06T04:37:43.386Z,4.25
2023-02-06T04:40:13.921Z,4.60
2023-02-06T04:42:41.908Z,4.15
2023-02-06T04:45:10.636Z,4.10
2023-02-06T04:47:38.629Z,4.60
2023-02-06T04:50:07.560Z,4.30
2023-02-06T04:52:35.592Z,4.10
2023-02-06T04:55:03.552Z,4.43
2023-02-06T04:57:32.842Z,4.88
2023-02-06T05:00:00.824Z,4.18
2023-02-06T05:02:28.878Z,4.63
2023-02-06T05:04:56.852Z,5.60
2023-02-06T05:07:25.011Z,4.22
2023-02-06T05:09:53.030Z,4.70
2023-02-06T05:12:21.028Z,3.70
2023-02-06T05:14:50.392Z,3.50
2023-02-06T05:17:18.431Z,4.40
2023-02-06T05:19:46.845Z,4.35
2023-02-06T05:22:14.935Z,4.60
2023-02-06T05:24:42.981Z,4.10
2023-02-06T05:27:10.945Z,3.70
2023-02-06T05:29:38.992Z,3.90
2023-02-06T05:32:08.443Z,3.85
2023-02-06T05:34:36.370Z,2.72
2023-02-06T05:37:04.618Z,3.50
2023-02-06T05:39:32.605Z,4.27
2023-02-06T05:42:00.670Z,3.83
2023-02-06T05:44:28.874Z,4.07
2023-02-06T05:46:56.887Z,4.20
2023-02-06T05:49:26.198Z,4.45
2023-02-06T05:51:54.102Z,4.93
2023-02-06T05:54:22.047Z,5.05
2023-02-06T05:56:50.037Z,4.70
2023-02-06T05:59:18.043Z,4.20
2023-02-06T06:01:45.979Z,4.13
2023-02-06T06:04:13.949Z,4.75
2023-02-06T06:06:43.245Z,4.97
2023-02-06T06:09:11.239Z,4.63
2023-02-06T06:11:39.430Z,5.25
2023-02-06T06:14:07.440Z,5.65
2023-02-06T06:16:35.817Z,5.03
2023-02-06T06:19:03.853Z,5.00
2023-02-06T06:21:32.055Z,5.00
2023-02-06T06:24:02.011Z,4.13
2023-02-06T06:26:30.007Z,4.65
2023-02-06T06:28:58.112Z,5.60
2023-02-06T06:31:26.159Z,4.93
2023-02-06T06:33:54.363Z,4.88
2023-02-06T06:36:22.515Z,4.43
2023-02-06T06:38:50.596Z,4.75
2023-02-06T06:41:19.990Z,5.18
2023-02-06T06:43:49.105Z,5.10
2023-02-06T06:46:18.935Z,5.80
2023-02-06T06:48:46.904Z,5.20
2023-02-06T06:51:14.982Z,5.07
2023-02-06T06:53:42.989Z,5.20
2023-02-06T06:56:14.416Z,4.78
2023-02-06T06:58:44.043Z,5.20
2023-02-06T07:01:12.108Z,5.25
2023-02-06T07:03:40.238Z,5.68
2023-02-06T07:06:08.541Z,5.20
2023-02-06T07:08:41.792Z,4.40
2023-02-06T07:11:10.421Z,3.70
2023-02-06T07:13:38.862Z,4.28
2023-02-06T07:16:09.081Z,4.78
2023-02-06T07:18:38.460Z,4.28
2023-02-06T07:21:08.679Z,5.32
2023-02-06T07:23:38.522Z,4.30
2023-02-06T07:26:06.834Z,4.20
2023-02-06T07:28:35.197Z,3.80
2023-02-06T07:31:04.593Z,3.92
2023-02-06T07:33:34.081Z,3.60
2023-02-06T07:36:03.967Z,3.60
2023-02-06T07:38:32.258Z,3.90
2023-02-06T07:41:02.533Z,4.50
2023-02-06T07:43:30.617Z,3.20
2023-02-06T07:46:00.659Z,3.88
2023-02-06T07:48:28.639Z,3.55
2023-02-06T07:50:58.245Z,3.65
2023-02-06T07:53:26.167Z,3.75
2023-02-06T07:55:54.171Z,4.07
2023-02-06T07:58:22.171Z,4.63
2023-02-06T08:00:50.221Z,4.03
2023-02-06T08:03:18.295Z,3.85
2023-02-06T08:05:46.295Z,4.40
2023-02-06T08:08:15.660Z,4.63
2023-02-06T08:10:43.615Z,4.30
2023-02-06T08:13:11.608Z,4.50
2023-02-06T08:15:39.534Z,4.43
2023-02-06T08:18:07.564Z,3.50
2023-02-06T08:20:35.489Z,3.17
2023-02-06T08:23:04.180Z,3.80
2023-02-06T08:25:33.578Z,4.13
2023-02-06T08:28:01.539Z,4.43
2023-02-06T08:30:29.762Z,4.28
2023-02-06T08:32:57.757Z,4.35
2023-02-06T08:35:25.726Z,4.18
2023-02-06T08:37:53.676Z,3.78
2023-02-06T08:40:21.845Z,4.25
2023-02-06T08:42:52.557Z,4.18
2023-02-06T08:45:20.569Z,4.57
2023-02-06T08:47:48.537Z,5.25
2023-02-06T08:50:17.113Z,4.63
2023-02-06T08:52:45.127Z,4.40
2023-02-06T08:55:13.121Z,4.35
2023-02-06T08:57:41.130Z,4.60
2023-02-06T09:00:11.905Z,4.60
2023-02-06T09:02:39.922Z,5.50
2023-02-06T09:05:08.146Z,5.15
2023-02-06T09:07:36.139Z,4.60
2023-02-06T09:10:04.096Z,5.28
2023-02-06T09:12:32.101Z,5.30
2023-02-06T09:15:00.033Z,5.15
2023-02-06T09:17:31.537Z,4.57
2023-02-06T09:19:59.494Z,5.70
2023-02-06T09:22:28.125Z,5.50
2023-02-06T09:24:56.087Z,6.10
2023-02-06T09:27:24.053Z,5.60
2023-02-06T09:29:52.062Z,5.72
2023-02-06T09:32:20.069Z,5.75
2023-02-06T09:34:49.398Z,5.15
2023-02-06T09:37:17.341Z,6.45
2023-02-06T09:39:45.325Z,6.30
2023-02-06T09:42:18.284Z,5.80
2023-02-06T09:44:51.194Z,6.05
2023-02-06T09:47:24.830Z,6.00
2023-02-06T09:49:57.650Z,5.93
2023-02-06T09:52:52.314Z,5.40
2023-02-06T09:55:26.921Z,6.45
2023-02-06T09:58:03.531Z,7.10
2023-02-06T10:00:41.549Z,7.00
2023-02-06T10:03:26.632Z,6.60
2023-02-06T10:06:05.150Z,6.60
2023-02-06T10:08:38.344Z,6.55
2023-02-06T10:11:14.623Z,7.38
2023-02-06T10:13:49.651Z,7.20
2023-02-06T10:16:33.157Z,7.03
2023-02-06T10:19:06.782Z,6.80
2023-02-06T10:21:41.430Z,6.72
2023-02-06T10:24:16.112Z,6.72
2023-02-06T10:26:44.043Z,6.88
2023-02-06T10:29:17.835Z,6.20
2023-02-06T10:31:59.802Z,7.60
2023-02-06T10:34:42.622Z,6.22
2023-02-06T10:37:26.278Z,6.88
2023-02-06T10:40:06.948Z,6.75
2023-02-06T10:42:47.695Z,6.40
2023-02-06T10:45:24.255Z,6.65
2023-02-06T10:47:56.783Z,6.93
2023-02-06T10:50:29.603Z,7.38
2023-02-06T10:53:02.016Z,6.30
2023-02-06T10:55:44.404Z,5.95
2023-02-06T10:58:18.005Z,6.50
2023-02-06T11:00:47.935Z,6.18
2023-02-06T11:03:19.742Z,6.32
2023-02-06T11:05:48.234Z,6.07
2023-02-06T11:08:22.849Z,6.70
2023-02-06T11:10:50.915Z,5.70
2023-02-06T11:13:26.764Z,5.18
2023-02-06T11:16:01.729Z,6.10
2023-02-06T11:18:32.792Z,5.88
2023-02-06T11:21:01.120Z,5.70
2023-02-06T11:23:33.955Z,6.75
2023-02-06T11:26:09.002Z,6.45
2023-02-06T11:28:40.116Z,6.25
2023-02-06T11:31:10.046Z,5.80
2023-02-06T11:33:43.023Z,6.80
2023-02-06T11:36:27.225Z,6.80
2023-02-06T11:38:59.096Z,6.72
2023-02-06T11:41:27.420Z,7.07
2023-02-06T11:44:01.623Z,7.10
2023-02-06T11:46:32.424Z,7.47
2023-02-06T11:49:09.022Z,7.10
2023-02-06T11:51:49.407Z,7.00
2023-02-06T11:54:23.601Z,7.40
2023-02-06T11:57:00.218Z,6.10
2023-02-06T11:59:28.756Z,7.35
2023-02-06T12:01:57.619Z,7.57
2023-02-06T12:04:29.601Z,7.60
2023-02-06T12:07:07.721Z,8.10
2023-02-06T12:09:37.090Z,6.53
2023-02-06T12:12:11.188Z,7.72
2023-02-06T12:14:41.566Z,6.50
2023-02-06T12:17:26.526Z,6.57
2023-02-06T12:20:02.995Z,6.40
2023-02-06T12:22:36.707Z,7.30
2023-02-06T12:25:06.542Z,7.20
2023-02-06T12:27:39.287Z,6.57
2023-02-06T12:30:24.005Z,6.20
2023-02-06T12:32:56.428Z,5.30
2023-02-06T12:35:31.592Z,6.50
2023-02-06T12:38:04.901Z,5.50
2023-02-06T12:40:44.663Z,5.80
2023-02-06T12:43:14.525Z,6.65
2023-02-06T12:45:48.740Z,6.63
2023-02-06T12:48:22.132Z,5.90
2023-02-06T12:50:59.719Z,6.10
2023-02-06T12:53:35.328Z,6.30
2023-02-06T12:56:09.482Z,5.40
2023-02-06T12:58:51.189Z,5.50
2023-02-06T13:01:31.640Z,5.78
2023-02-06T13:04:04.408Z,6.45
2023-02-06T13:06:43.470Z,6.10
2023-02-06T13:09:21.246Z,5.60
2023-02-06T13:11:50.875Z,5.32
2023-02-06T13:14:21.573Z,5.78
2023-02-06T13:16:58.707Z,5.55
2023-02-06T13:19:30.754Z,5.87
2023-02-06T13:22:37.867Z,5.60
2023-02-06T13:25:50.615Z,6.45
2023-02-06T13:28:42.857Z,7.10
2023-02-06T13:31:24.438Z,6.53
2023-02-06T13:33:55.412Z,6.65
2023-02-06T13:36:28.792Z,6.53
2023-02-06T13:38:58.416Z,6.40
2023-02-06T13:41:31.525Z,6.70
2023-02-06T13:44:06.481Z,6.72
2023-02-06T13:46:59.780Z,7.40
2023-02-06T13:49:57.934Z,7.00
2023-02-06T13:52:34.179Z,7.18
2023-02-06T13:55:17.280Z,6.65
2023-02-06T13:58:00.061Z,7.20
2023-02-06T14:00:33.493Z,6.00
2023-02-06T14:03:07.688Z,6.10
2023-02-06T14:05:47.341Z,4.85
2023-02-06T14:08:24.462Z,5.65
2023-02-06T14:11:27.140Z,6.22
2023-02-06T14:14:17.693Z,5.82
2023-02-06T14:16:55.683Z,5.25
2023-02-06T14:19:32.297Z,4.78
2023-02-06T14:22:17.369Z,4.68
2023-02-06T14:25:04.571Z,4.65
2023-02-06T14:27:48.405Z,5.30
2023-02-06T14:30:27.521Z,5.70
2023-02-06T14:33:06.514Z,5.43
2023-02-06T14:35:48.786Z,5.40
2023-02-06T14:38:33.571Z,4.32
2023-02-06T14:41:04.056Z,4.13
2023-02-06T14:43:36.912Z,4.60
2023-02-06T14:46:11.047Z,4.30
2023-02-06T14:48:52.989Z,4.40
2023-02-06T14:51:25.075Z,4.57
2023-02-06T14:53:56.412Z,4.77
2023-02-06T14:56:29.986Z,4.28
2023-02-06T14:58:58.010Z,5.05
2023-02-06T15:01:28.961Z,3.67
2023-02-06T15:04:12.183Z,3.60
2023-02-06T15:06:41.825Z,3.60
2023-02-06T15:09:22.718Z,3.30
2023-02-06T15:11:52.472Z,3.78
2023-02-06T15:14:23.971Z,3.40
2023-02-06T15:16:52.968Z,3.85
2023-02-06T15:19:24.326Z,3.95
2023-02-06T15:21:56.265Z,3.30
2023-02-06T15:24:45.880Z,3.85
2023-02-06T15:27:24.289Z,2.92
2023-02-06T15:29:52.996Z,3.70
2023-02-06T15:32:27.562Z,4.17
2023-02-06T15:34:57.760Z,3.60
2023-02-06T15:37:29.489Z,3.60
2023-02-06T15:40:02.362Z,3.80
2023-02-06T15:42:30.404Z,3.95
2023-02-06T15:44:58.596Z,3.80
2023-02-06T15:47:26.664Z,3.75
2023-02-06T15:50:00.331Z,3.58
2023-02-06T15:52:37.495Z,3.40
2023-02-06T15:55:06.371Z,3.60
2023-02-06T15:57:36.462Z,3.80
2023-02-06T16:00:09.622Z,4.80
2023-02-06T16:02:40.592Z,4.30
2023-02-06T16:05:19.776Z,3.70
2023-02-06T16:07:49.453Z,4.00
2023-02-06T16:10:23.389Z,3.80
2023-02-06T16:12:52.391Z,3.50
2023-02-06T16:15:31.839Z,4.15
2023-02-06T16:18:02.160Z,3.75
2023-02-06T16:20:37.008Z,4.43
2023-02-06T16:23:23.850Z,4.50
2023-02-06T16:26:03.382Z,4.50
2023-02-06T16:28:31.376Z,4.10
2023-02-06T16:31:05.387Z,4.93
2023-02-06T16:33:38.670Z,4.75
2023-02-06T16:36:10.699Z,4.68
2023-02-06T16:38:38.717Z,4.70
2023-02-06T16:41:25.822Z,4.82
2023-02-06T16:43:54.684Z,4.85
2023-02-06T16:46:22.986Z,5.65
2023-02-06T16:48:51.109Z,5.43
2023-02-06T16:51:22.496Z,5.13
2023-02-06T16:53:51.173Z,5.50
2023-02-06T16:56:20.202Z,5.60
2023-02-06T16:58:48.578Z,5.65
2023-02-06T17:01:22.959Z,5.50
2023-02-06T17:03:51.557Z,6.28
2023-02-06T17:06:26.161Z,6.43
2023-02-06T17:08:56.756Z,5.80
2023-02-06T17:11:24.827Z,5.80
2023-02-06T17:13:52.763Z,5.50
2023-02-06T17:16:22.942Z,6.07
2023-02-06T17:18:51.452Z,5.35
2023-02-06T17:21:22.650Z,5.45
2023-02-06T17:23:52.088Z,5.80
2023-02-06T17:26:22.733Z,6.63
2023-02-06T17:28:51.872Z,5.95
2023-02-06T17:31:20.238Z,5.80
2023-02-06T17:33:48.484Z,6.35
2023-02-06T17:36:21.015Z,5.32
2023-02-06T17:38:50.709Z,4.97
2023-02-06T17:41:18.644Z,5.35
2023-02-06T17:43:46.555Z,6.40
2023-02-06T17:46:14.581Z,6.35
2023-02-06T17:48:44.514Z,6.63
2023-02-06T17:51:12.766Z,4.60
2023-02-06T17:53:40.790Z,5.28
2023-02-06T17:56:12.748Z,5.30
2023-02-06T17:58:41.116Z,5.50
2023-02-06T18:01:11.942Z,4.95
2023-02-06T18:03:40.195Z,5.65
2023-02-06T18:06:08.831Z,5.80
2023-02-06T18:08:36.855Z,5.78
2023-02-06T18:11:11.488Z,5.47
2023-02-06T18:13:40.085Z,5.00
2023-02-06T18:16:09.193Z,5.30
2023-02-06T18:18:37.250Z,5.00
2023-02-06T18:21:05.515Z,5.22
2023-02-06T18:23:33.512Z,5.38
2023-02-06T18:26:03.637Z,6.20
2023-02-06T18:28:33.637Z,5.13
2023-02-06T18:31:02.874Z,5.27
2023-02-06T18:33:31.491Z,4.65
2023-02-06T18:35:59.636Z,5.35
2023-02-06T18:38:27.853Z,5.57
2023-02-06T18:40:55.830Z,5.50
2023-02-06T18:43:22.900Z,7.07
2023-02-06T18:45:52.231Z,7.25
2023-02-06T18:48:20.288Z,6.50
2023-02-06T18:50:48.322Z,6.50
2023-02-06T18:53:16.947Z,7.55
2023-02-06T18:55:44.868Z,7.80
2023-02-06T18:58:12.992Z,7.80
2023-02-06T19:00:42.377Z,7.90
2023-02-06T19:03:11.741Z,8.90
2023-02-06T19:05:39.939Z,7.45
2023-02-06T19:08:08.009Z,6.78
2023-02-06T19:10:36.284Z,6.85
2023-02-06T19:13:05.756Z,6.15
2023-02-06T19:15:35.863Z,6.82
2023-02-06T19:18:05.583Z,6.93
2023-02-06T19:20:35.118Z,7.15
2023-02-06T19:23:03.336Z,6.72
2023-02-06T19:25:31.428Z,6.57
2023-02-06T19:27:59.511Z,7.40
2023-02-06T19:30:27.737Z,7.18
2023-02-06T19:32:55.804Z,6.65
2023-02-06T19:35:23.836Z,6.75
2023-02-06T19:37:53.159Z,6.90
2023-02-06T19:40:21.264Z,7.80
2023-02-06T19:42:49.360Z,7.18
2023-02-06T19:45:17.530Z,7.33
2023-02-06T19:47:45.587Z,7.15
2023-02-06T19:50:14.431Z,6.70
2023-02-06T19:52:42.605Z,6.53
2023-02-06T19:55:12.387Z,7.63
2023-02-06T19:57:40.721Z,7.97
2023-02-06T20:00:10.168Z,7.68
2023-02-06T20:02:39.086Z,7.00
2023-02-06T20:05:07.887Z,7.70
2023-02-06T20:07:37.804Z,7.50
2023-02-06T20:10:06.558Z,7.18
2023-02-06T20:12:35.955Z,8.20
2023-02-06T20:15:03.973Z,8.02
2023-02-06T20:17:32.054Z,7.82
2023-02-06T20:20:00.782Z,7.57
2023-02-06T20:22:28.987Z,7.60
2023-02-06T20:24:57.031Z,7.90
2023-02-06T20:27:25.213Z,7.50
2023-02-06T20:29:54.579Z,7.88
2023-02-06T20:32:22.756Z,7.30
2023-02-06T20:34:50.788Z,7.35
2023-02-06T20:37:18.842Z,7.70
2023-02-06T20:39:46.940Z,7.23
2023-02-06T20:42:15.450Z,7.90
2023-02-06T20:44:43.547Z,7.15
2023-02-06T20:47:13.004Z,7.55
2023-02-06T20:49:41.950Z,7.57
2023-02-06T20:52:09.962Z,7.80
2023-02-06T20:54:38.107Z,7.60
2023-02-06T20:57:06.197Z,6.70
2023-02-06T20:59:34.384Z,7.53
2023-02-06T21:02:02.415Z,7.82
2023-02-06T21:04:33.795Z,7.63
2023-02-06T21:07:01.824Z,8.25
2023-02-06T21:09:30.336Z,7.63
2023-02-06T21:11:58.489Z,7.45
2023-02-06T21:14:28.036Z,7.53
2023-02-06T21:16:56.094Z,7.18
2023-02-06T21:19:25.858Z,6.95
2023-02-06T21:21:55.676Z,7.90
2023-02-06T21:24:24.065Z,8.30
2023-02-06T21:26:52.109Z,8.55
2023-02-06T21:29:22.889Z,6.90
2023-02-06T21:31:57.917Z,7.53
2023-02-06T21:34:31.857Z,7.00
2023-02-06T21:37:01.262Z,7.35
2023-02-06T21:39:30.521Z,7.80
2023-02-06T21:42:00.373Z,7.60
2023-02-06T21:44:28.930Z,7.85
2023-02-06T21:46:56.968Z,7.50
2023-02-06T21:49:25.375Z,7.20
2023-02-06T21:51:53.919Z,7.32
2023-02-06T21:54:24.682Z,7.70
2023-02-06T21:56:53.313Z,8.13
2023-02-06T21:59:21.352Z,8.75
2023-02-06T22:01:49.353Z,8.23
2023-02-06T22:04:17.645Z,7.40
2023-02-06T22:06:47.178Z,7.22
2023-02-06T22:09:18.953Z,7.60
2023-02-06T22:11:48.448Z,7.07
2023-02-06T22:14:18.747Z,7.40
2023-02-06T22:16:47.593Z,7.93
2023-02-06T22:19:16.708Z,7.77
2023-02-06T22:21:44.914Z,7.70
2023-02-06T22:24:13.424Z,6.95
2023-02-06T22:26:41.678Z,7.00
2023-02-06T22:29:13.399Z,7.80
2023-02-06T22:31:43.327Z,8.27
2023-02-06T22:34:15.264Z,8.25
2023-02-06T22:36:44.533Z,8.20
2023-02-06T22:39:13.932Z,7.90
2023-02-06T22:41:43.659Z,7.43
2023-02-06T22:44:16.422Z,8.30
2023-02-06T22:46:47.154Z,9.18
2023-02-06T22:49:15.640Z,9.35
2023-02-06T22:51:44.227Z,9.20
2023-02-06T22:54:12.954Z,8.65
2023-02-06T22:56:42.366Z,8.10
2023-02-06T22:59:15.107Z,8.15
2023-02-06T23:01:44.572Z,8.40
2023-02-06T23:04:14.010Z,9.00
2023-02-06T23:06:42.400Z,9.30
2023-02-06T23:09:13.679Z,8.80
2023-02-06T23:11:41.781Z,7.95
2023-02-06T23:14:10.024Z,8.80
2023-02-06T23:16:39.709Z,8.30
2023-02-06T23:19:08.936Z,8.48
2023-02-06T23:21:39.848Z,8.93
2023-02-06T23:24:09.490Z,8.13
2023-02-06T23:26:37.991Z,7.68
2023-02-06T23:29:08.474Z,8.75
2023-02-06T23:31:36.983Z,8.20
2023-02-06T23:34:06.573Z,8.35
2023-02-06T23:36:35.008Z,8.68
2023-02-06T23:39:04.017Z,8.57
2023-02-06T23:41:32.191Z,7.65
2023-02-06T23:44:01.890Z,8.30
2023-02-06T23:46:31.639Z,7.75
2023-02-06T23:48:59.968Z,7.47
2023-02-06T23:51:29.673Z,8.23
2023-02-06T23:53:57.778Z,9.43
2023-02-06T23:56:27.657Z,7.60
2023-02-06T23:58:57.241Z,7.85
